Latest Weather Observations for Kilmore Gap

IDV60801

Issued at 10:02 am EST Saturday 25 April 2015 (issued every 30 minutes, with the page automatically refreshed every 10 minutes)

About weather observations | Map of weather stations | Latest weather observations for VIC | Other Formats
Station Details ID: 088162 Name: KILMORE GAP Lat: -37.38 Lon: 144.97 Height: 527.8 m
Data from the previous 72 hours. | See also: Recent months at Kilmore Gap
Date/Time
EST
Temp
°C
App
Temp
°C
Dew
Point
Rel
Hum
%
Delta-T
°C
Wind Press
QNH
hPa
Press
MSL
hPa
Rain
since 9 am
mm
Dir
 
Spd
km/h
Gust
km/h
Spd
kts
Gust
kts
25/10:00am 8.3 4.3 8.3 100 0.0 S 19 26 10 14 1008.4 - 0.0
25/09:30am 8.3 5.4 8.3 100 0.0 S 13 19 7 10 1008.6 - 0.0
25/09:00am 8.3 5.1 8.3 100 0.0 SSE 15 20 8 11 1008.1 1007.5 6.6
25/08:30am 7.9 3.2 7.9 100 0.0 SSE 22 28 12 15 1007.8 - 6.6
25/08:00am 8.2 4.9 8.2 100 0.0 SSE 15 20 8 11 1007.5 - 6.4
25/07:30am 8.3 5.8 8.3 100 0.0 SSE 11 15 6 8 1007.2 - 6.4
25/07:00am 8.8 6.4 8.8 100 0.0 SSE 11 13 6 7 1007.0 - 6.4
25/06:30am 9.3 6.7 9.3 100 0.0 SSE 13 17 7 9 1006.9 - 6.4
25/06:00am 9.9 8.6 9.9 100 0.0 WSW 7 9 4 5 1006.8 1006.2 6.2
25/05:30am 9.9 7.8 9.9 100 0.0 W 11 15 6 8 1006.8 - 6.0
25/05:00am 10.2 8.2 10.2 100 0.0 W 11 15 6 8 1006.5 - 6.0
25/04:30am 10.1 8.1 10.1 100 0.0 W 11 13 6 7 1006.1 - 6.0
25/04:29am 10.1 8.5 10.1 100 0.0 WNW 9 13 5 7 1006.1 - 6.0
25/04:13am 10.1 8.5 10.1 100 0.0 NE 9 13 5 7 1006.0 - 6.0
25/04:00am 10.1 7.7 10.1 100 0.0 E 13 17 7 9 1005.7 - 6.0
25/03:38am 10.1 8.5 10.1 100 0.0 ENE 9 11 5 6 1005.7 - 5.8
25/03:30am 10.0 8.0 10.0 100 0.0 NE 11 15 6 8 1005.9 - 5.8
25/03:12am 10.1 7.3 10.1 100 0.0 N 15 17 8 9 1006.1 - 5.2
25/03:00am 10.2 7.5 10.2 100 0.0 N 15 19 8 10 1006.2 1005.6 5.0
25/02:30am 10.3 8.3 10.3 100 0.0 NNE 11 15 6 8 1006.3 - 4.8
25/02:00am 10.2 8.2 10.2 100 0.0 NNE 11 13 6 7 1006.3 - 4.6
25/01:45am 10.2 8.2 10.2 100 0.0 NNE 11 13 6 7 1006.3 - 4.4
25/01:30am 10.1 8.1 10.1 100 0.0 N 11 15 6 8 1006.6 - 4.4
25/01:00am 10.1 7.7 10.1 100 0.0 NNE 13 15 7 8 1006.7 - 4.4
25/12:30am 10.1 6.9 10.1 100 0.0 N 17 20 9 11 1006.8 - 3.8
25/12:00am 10.0 7.6 10.0 100 0.0 N 13 17 7 9 1006.7 1006.1 3.8
 
Date/Time
EST
Temp
°C
App
Temp
°C
Dew
Point
Rel
Hum
%
Delta-T
°C
Wind Press
QNH
hPa
Press
MSL
hPa
Rain
since 9 am
mm
Dir
 
Spd
km/h
Gust
km/h
Spd
kts
Gust
kts
24/11:30pm 10.1 7.7 10.1 100 0.0 N 13 15 7 8 1006.7 - 3.8
24/11:00pm 10.2 7.1 10.2 100 0.0 N 17 20 9 11 1007.0 - 3.8
24/10:30pm 10.4 8.1 10.4 100 0.0 NNW 13 17 7 9 1006.9 - 3.2
24/10:27pm 10.4 7.7 10.4 100 0.0 NNW 15 19 8 10 1006.9 - 3.0
24/10:00pm 10.5 7.4 10.3 99 0.1 NNW 17 20 9 11 1006.9 - 2.6
24/09:49pm 10.5 7.8 10.3 99 0.1 NNW 15 19 8 10 1006.8 - 2.6
24/09:30pm 10.5 7.8 10.3 99 0.1 WNW 15 22 8 12 1006.8 - 2.2
24/09:05pm 11.1 7.3 9.9 92 0.6 WNW 20 39 11 21 1007.0 - 0.6
24/09:00pm 11.8 7.2 9.7 87 1.1 WNW 24 39 13 21 1006.9 1006.3 0.2
24/08:30pm 12.6 8.6 10.5 87 1.1 N 22 28 12 15 1006.2 - 0.0
24/08:00pm 12.9 8.5 10.3 84 1.4 N 24 32 13 17 1006.0 - 0.0
24/07:30pm 13.2 9.3 9.6 79 1.9 N 20 28 11 15 1005.8 - 0.0
24/07:00pm 13.0 8.3 9.4 79 1.9 N 24 30 13 16 1005.8 - 0.0
24/06:30pm 13.6 9.0 9.6 77 2.1 N 24 32 13 17 1005.5 - 0.0
24/06:00pm 13.9 10.2 9.3 74 2.4 N 19 26 10 14 1005.2 1004.6 0.0
24/05:30pm 14.5 9.8 9.1 70 2.8 NNW 24 30 13 16 1004.9 - 0.0
24/05:00pm 15.3 10.1 8.8 65 3.4 NNW 26 35 14 19 1004.6 - 0.0
24/04:30pm 15.4 10.4 9.5 68 3.1 N 26 33 14 18 1004.5 - 0.0
24/04:00pm 15.8 11.3 10.1 69 3.1 N 24 32 13 17 1004.2 - 0.0
24/03:30pm 15.8 10.8 9.7 67 3.3 NNW 26 35 14 19 1004.2 - 0.0
24/03:00pm 16.2 12.5 10.1 67 3.3 NNW 20 32 11 17 1004.2 1003.6 0.0
24/02:30pm 16.1 10.8 10.0 67 3.3 N 28 33 15 18 1004.2 - 0.0
24/02:00pm 15.8 11.5 10.6 71 2.8 N 24 35 13 19 1004.3 - 0.0
24/01:30pm 16.5 11.8 10.8 69 3.1 N 26 35 14 19 1004.3 - 0.0
24/01:00pm 17.1 13.4 11.6 70 3.1 N 22 30 12 16 1004.6 - 0.0
24/12:30pm 15.7 12.7 12.1 79 2.0 N 19 24 10 13 1005.1 - 0.0
24/12:08pm 15.1 12.1 12.4 84 1.5 N 20 30 11 16 1005.4 - 0.0
24/12:00pm 14.7 11.1 12.0 84 1.5 N 22 30 12 16 1005.5 1004.9 0.0
24/11:30am 14.7 12.4 11.8 83 1.6 N 15 20 8 11 1005.8 - 0.0
24/11:17am 14.7 11.9 11.5 81 1.8 N 17 20 9 11 1005.9 - 0.0
24/11:00am 14.8 12.6 12.1 84 1.5 N 15 20 8 11 1006.0 - 0.0
24/10:30am 15.0 13.4 12.7 86 1.3 NNW 13 19 7 10 1006.1 - 0.0
24/10:10am 13.8 12.5 13.6 99 0.1 N 13 17 7 9 1006.3 - 0.0
24/10:09am 13.8 12.5 13.6 99 0.1 N 13 17 7 9 1006.3 - 0.0
24/10:00am 13.7 12.4 13.7 100 0.0 N 13 15 7 8 1006.3 - 0.0
24/09:30am 12.1 9.5 12.1 100 0.0 N 17 20 9 11 1006.2 - 0.0
24/09:00am 12.6 10.2 12.6 100 0.0 N 17 20 9 11 1006.3 1005.7 0.0
24/08:52am 12.2 9.3 12.2 100 0.0 N 19 24 10 13 1006.3 - 0.0
24/08:30am 12.3 9.4 12.3 100 0.0 N 19 22 10 12 1006.6 - 0.0
24/08:04am 12.2 9.3 12.2 100 0.0 N 19 22 10 12 1006.6 - 0.0
24/08:00am 12.3 9.3 12.1 99 0.1 N 19 22 10 12 1006.5 - 0.0
24/07:30am 12.0 9.2 11.5 97 0.3 N 17 20 9 11 1006.2 - 0.0
24/07:00am 12.3 9.6 11.7 96 0.3 NNW 17 20 9 11 1005.9 - 0.0
24/06:30am 12.6 10.4 12.1 97 0.3 NNW 15 20 8 11 1005.9 - 0.0
24/06:18am 12.7 10.6 12.5 99 0.1 NNW 15 19 8 10 1006.0 - 0.0
24/06:00am 12.1 9.9 12.1 100 0.0 N 15 17 8 9 1005.8 1005.2 0.0
24/05:43am 11.9 9.9 11.6 98 0.2 N 13 17 7 9 1005.8 - 0.0
24/05:30am 12.8 10.7 12.3 97 0.3 NNW 15 20 8 11 1005.9 - 0.0
24/05:00am 12.7 10.4 11.8 94 0.5 NW 15 17 8 9 1006.2 - 0.0
24/04:30am 13.2 11.0 12.1 93 0.6 NW 15 17 8 9 1006.5 - 0.0
24/04:00am 13.5 11.1 12.7 95 0.4 NW 17 20 9 11 1006.6 - 0.0
24/03:30am 13.6 11.8 13.4 99 0.1 NNW 15 19 8 10 1006.8 - 0.0
24/03:00am 13.7 11.6 13.7 100 0.0 NNW 17 19 9 10 1007.1 1006.5 0.0
24/02:30am 13.2 11.0 13.2 100 0.0 N 17 17 9 9 1007.6 - 0.0
24/02:00am 13.1 11.6 13.1 100 0.0 N 13 17 7 9 1007.9 - 0.0
24/01:43am 12.8 11.6 12.8 100 0.0 N 11 13 6 7 1008.1 - 0.0
24/01:30am 12.6 11.7 12.6 100 0.0 N 9 11 5 6 1008.2 - 0.0
24/01:12am 11.8 12.4 11.8 100 0.0 CALM 0 0 0 0 1008.3 - 0.0
24/01:00am 11.8 12.4 11.8 100 0.0 CALM 0 0 0 0 1008.4 - 0.0
24/12:30am 12.1 12.0 12.1 100 0.0 WSW 4 7 2 4 1009.0 - 0.0
24/12:00am 12.3 11.9 12.3 100 0.0 SW 6 7 3 4 1009.3 1008.7 0.0
 
Date/Time
EST
Temp
°C
App
Temp
°C
Dew
Point
Rel
Hum
%
Delta-T
°C
Wind Press
QNH
hPa
Press
MSL
hPa
Rain
since 9 am
mm
Dir
 
Spd
km/h
Gust
km/h
Spd
kts
Gust
kts
23/11:30pm 12.3 11.3 12.3 100 0.0 SW 9 13 5 7 1009.7 - 0.0
23/11:00pm 12.3 10.9 12.3 100 0.0 WSW 11 13 6 7 1010.2 - 0.0
23/10:30pm 12.4 11.1 12.4 100 0.0 SW 11 15 6 8 1010.6 - 0.0
23/10:00pm 12.4 11.1 12.4 100 0.0 SSW 11 15 6 8 1010.9 - 0.0
23/09:30pm 12.4 10.7 12.4 100 0.0 S 13 17 7 9 1010.9 - 0.0
23/09:00pm 12.4 10.7 12.4 100 0.0 SSW 13 20 7 11 1011.5 1011.0 0.0
23/08:30pm 12.5 10.4 12.5 100 0.0 SW 15 19 8 10 1011.7 - 0.0
23/08:00pm 12.5 10.4 12.5 100 0.0 SSW 15 20 8 11 1011.8 - 0.0
23/07:30pm 12.4 10.3 12.4 100 0.0 SSW 15 24 8 13 1012.1 - 0.0
23/07:00pm 12.5 10.1 12.5 100 0.0 SSW 17 24 9 13 1012.4 - 0.0
23/06:30pm 12.6 10.2 12.6 100 0.0 SSW 17 22 9 12 1012.6 - 0.0
23/06:00pm 12.7 10.3 12.7 100 0.0 SSW 17 22 9 12 1012.6 1012.0 0.0
23/05:30pm 12.8 10.1 12.8 100 0.0 SW 19 26 10 14 1012.8 - 0.0
23/05:18pm 12.9 10.2 12.9 100 0.0 SW 19 28 10 15 1012.8 - 0.0
23/05:00pm 13.0 10.3 12.8 99 0.1 SSW 19 28 10 15 1012.7 - 0.0
23/04:30pm 13.3 10.6 12.8 97 0.3 SSW 19 24 10 13 1012.7 - 0.0
23/04:00pm 13.5 10.8 12.9 96 0.3 SSW 19 26 10 14 1012.8 - 0.0
23/03:30pm 13.8 10.8 12.7 93 0.6 SSW 20 32 11 17 1013.1 - 0.0
23/03:00pm 14.5 11.8 12.9 90 0.9 SSW 19 26 10 14 1013.6 1013.1 0.0
23/02:30pm 15.2 12.9 12.9 86 1.3 S 17 28 9 15 1013.7 - 0.0
23/02:00pm 14.9 12.4 13.4 91 0.9 SSW 19 26 10 14 1013.9 - 0.0
23/01:30pm 14.4 12.3 13.6 95 0.5 SSW 17 26 9 14 1014.3 - 0.0
23/01:00pm 13.7 11.0 12.9 95 0.4 SSW 19 26 10 14 1014.9 - 0.0
23/12:30pm 13.4 10.9 13.4 100 0.0 S 19 24 10 13 1015.5 - 0.0
23/12:00pm 13.1 10.8 13.1 100 0.0 S 17 24 9 13 1016.1 1015.6 0.0
23/11:30am 12.2 9.7 12.2 100 0.0 S 17 26 9 14 1016.9 - 0.0
23/11:01am 11.8 8.8 11.8 100 0.0 S 19 26 10 14 1017.3 - 0.0
23/11:00am 11.7 8.6 11.7 100 0.0 S 19 26 10 14 1017.3 - 0.0
23/10:30am 11.8 8.6 11.8 100 0.0 S 20 30 11 16 1017.6 - 0.0
23/10:00am 11.3 7.5 11.3 100 0.0 S 22 30 12 16 1017.7 - 0.0
23/09:30am 11.1 6.9 11.1 100 0.0 S 24 30 13 16 1017.9 - 0.0
23/09:00am 10.8 7.3 10.8 100 0.0 S 20 28 11 15 1018.2 1017.8 0.0
23/08:30am 10.7 7.1 10.7 100 0.0 S 20 30 11 16 1018.3 - 0.0
23/08:00am 10.4 6.4 10.4 100 0.0 S 22 32 12 17 1018.3 - 0.0
23/07:30am 10.3 6.3 10.3 100 0.0 S 22 32 12 17 1018.1 - 0.0
23/07:00am 10.2 6.1 10.2 100 0.0 S 22 32 12 17 1018.0 - 0.0
23/06:30am 10.3 6.3 10.3 100 0.0 S 22 32 12 17 1018.2 - 0.0
23/06:00am 10.4 6.4 10.4 100 0.0 S 22 33 12 18 1018.2 1017.8 0.0
23/05:30am 10.5 5.8 10.5 100 0.0 S 26 39 14 21 1018.2 - 0.0
23/05:00am 10.6 5.1 10.6 100 0.0 S 30 39 16 21 1018.3 - 0.0
23/04:30am 10.7 5.2 10.7 100 0.0 S 30 43 16 23 1018.2 - 0.0
23/04:00am 10.8 6.1 10.8 100 0.0 S 26 37 14 20 1018.4 - 0.0
23/03:30am 10.8 5.8 10.8 100 0.0 S 28 37 15 20 1018.6 - 0.0
23/03:00am 10.8 5.8 10.8 100 0.0 S 28 39 15 21 1018.7 1018.2 0.0
23/02:30am 10.8 5.4 10.8 100 0.0 S 30 39 16 21 1019.0 - 0.0
23/02:00am 10.9 6.3 10.9 100 0.0 S 26 39 14 21 1019.3 - 0.0
23/01:30am 11.0 6.0 11.0 100 0.0 S 28 39 15 21 1019.4 - 0.0
23/01:00am 11.1 6.1 11.1 100 0.0 S 28 39 15 21 1019.6 - 0.0
23/12:30am 11.1 6.5 11.1 100 0.0 S 26 37 14 20 1019.7 - 0.0
23/12:00am 11.3 6.8 11.3 100 0.0 S 26 41 14 22 1020.1 1019.7 0.0
 
Date/Time
EST
Temp
°C
App
Temp
°C
Dew
Point
Rel
Hum
%
Delta-T
°C
Wind Press
QNH
hPa
Press
MSL
hPa
Rain
since 9 am
mm
Dir
 
Spd
km/h
Gust
km/h
Spd
kts
Gust
kts
22/11:30pm 11.3 5.6 11.3 100 0.0 S 32 43 17 23 1020.1 - 0.0
22/11:18pm 11.3 6.0 11.3 100 0.0 S 30 48 16 26 1020.3 - 0.0
22/11:00pm 11.4 6.1 11.4 100 0.0 S 30 43 16 23 1020.7 - 0.0
22/10:30pm 11.5 5.9 11.5 100 0.0 S 32 43 17 23 1020.8 - 0.0
22/10:00pm 11.6 6.4 11.6 100 0.0 S 30 46 16 25 1021.3 - 0.0
22/09:30pm 11.8 6.7 11.8 100 0.0 S 30 43 16 23 1021.6 - 0.0
22/09:00pm 11.9 6.8 11.9 100 0.0 S 30 43 16 23 1021.6 1021.2 0.0
22/08:30pm 11.9 7.2 11.9 100 0.0 S 28 39 15 21 1021.4 - 0.0
22/08:21pm 11.9 7.6 11.9 100 0.0 S 26 39 14 21 1021.6 - 0.0
22/08:00pm 11.8 7.0 11.8 100 0.0 S 28 35 15 19 1021.6 - 0.0
22/07:30pm 12.4 7.1 12.4 100 0.0 S 32 43 17 23 1021.5 - 0.0
22/07:00pm 12.5 8.0 12.5 100 0.0 S 28 39 15 21 1021.7 - 0.0
22/06:30pm 12.4 7.5 12.4 100 0.0 S 30 41 16 22 1021.4 - 0.0
22/06:00pm 12.4 8.2 12.4 100 0.0 S 26 35 14 19 1021.3 1020.9 0.0
22/05:30pm 12.7 8.4 12.2 97 0.3 S 26 37 14 20 1021.3 - 0.0
22/05:00pm 13.1 8.0 12.0 93 0.6 S 30 43 16 23 1021.1 - 0.0
22/04:30pm 13.3 8.2 11.9 91 0.8 S 30 41 16 22 1021.3 - 0.0
22/04:00pm 13.6 8.5 11.8 89 1.0 S 30 46 16 25 1021.3 - 0.0
22/03:52pm 13.5 8.7 11.6 88 1.0 S 28 46 15 25 1021.4 - 0.0
22/03:30pm 13.7 9.3 11.6 87 1.2 S 26 39 14 21 1021.6 - 0.0
22/03:00pm 13.8 9.3 11.3 85 1.4 S 26 35 14 19 1021.8 1021.4 0.0
22/02:30pm 13.8 9.0 11.5 86 1.3 S 28 39 15 21 1022.1 - 0.0
22/02:00pm 13.7 9.3 11.6 87 1.2 S 26 39 14 21 1022.7 - 0.0
22/01:30pm 13.2 9.4 11.3 88 1.0 S 22 35 12 19 1023.0 - 0.0
22/01:00pm 12.7 9.2 10.9 89 1.0 S 20 37 11 20 1023.4 - 0.0
22/12:30pm 12.6 8.0 11.0 90 0.9 S 26 35 14 19 1023.8 - 0.0
22/12:00pm 12.4 7.0 11.0 91 0.7 S 30 41 16 22 1023.9 1023.5 0.0
22/11:30am 11.9 6.1 10.8 93 0.6 S 32 44 17 24 1024.3 - 0.0
22/11:00am 11.7 6.7 11.1 96 0.3 S 28 48 15 26 1024.8 - 0.0
22/10:30am 11.0 6.8 11.0 100 0.0 S 24 35 13 19 1025.4 - 0.0

Other Formats:

Comma delimited format used in spreadsheet applications
http://www.bom.gov.au/fwo/IDV60801/IDV60801.94860.axf

JavaScript Object Notation format (JSON) in row-major order
http://www.bom.gov.au/fwo/IDV60801/IDV60801.94860.json